Time;durP1;ratioP1;P1;durP2;ratioP2;P2;SDS_P1;SDS_P2;PMS_P1;PMS_P2;Temp;Humidity;BMP_temperature;BMP_pressure;BME280_temperature;BME280_humidity;BME280_pressure;Samples;Min_cycle;Max_cycle;Signal;HPM_P1;HPM_P2
2021/01/18 00:01:44;;;;;;;30.23;15.97;;;0.60;99.90;;;;;;5048910;28;20169;-80
2021/01/18 00:04:10;;;;;;;26.03;14.57;;;0.70;99.90;;;;;;5048317;28;20197;-80
2021/01/18 00:06:36;;;;;;;20.07;14.70;;;0.80;99.90;;;;;;5030978;28;20160;-80
2021/01/18 00:09:02;;;;;;;29.03;16.20;;;0.80;99.90;;;;;;5046455;28;20165;-79
2021/01/18 00:11:28;;;;;;;30.93;18.27;;;0.90;99.90;;;;;;5045654;28;20160;-80
2021/01/18 00:13:54;;;;;;;26.77;14.43;;;0.80;99.90;;;;;;5045896;28;20423;-80
2021/01/18 00:16:24;;;;;;;23.23;14.87;;;0.70;99.90;;;;;;5026280;28;20203;-80
2021/01/18 00:18:49;;;;;;;20.20;13.73;;;0.80;99.90;;;;;;5042751;28;20388;-79
2021/01/18 00:21:15;;;;;;;29.67;15.70;;;0.70;99.90;;;;;;5027991;28;20396;-79
2021/01/18 00:23:42;;;;;;;27.77;17.27;;;0.80;99.90;;;;;;5044059;28;20204;-80
2021/01/18 00:26:08;;;;;;;36.43;18.40;;;0.80;99.90;;;;;;5045068;28;20818;-81
2021/01/18 00:28:36;;;;;;;31.20;15.20;;;0.50;99.90;;;;;;5044992;28;20866;-80
2021/01/18 00:31:03;;;;;;;28.40;17.50;;;0.50;99.90;;;;;;5044809;28;20386;-80
2021/01/18 00:33:29;;;;;;;31.30;14.10;;;0.50;99.90;;;;;;5045785;28;20787;-80
2021/01/18 00:35:55;;;;;;;37.23;16.40;;;0.50;99.90;;;;;;5027980;28;20370;-78
2021/01/18 00:38:22;;;;;;;30.43;16.37;;;0.40;99.90;;;;;;5046420;28;20565;-81
2021/01/18 00:40:47;;;;;;;28.57;16.13;;;0.30;99.90;;;;;;5046083;28;20434;-79
2021/01/18 00:43:13;;;;;;;36.70;16.07;;;0.20;99.90;;;;;;5027918;28;20443;-80
2021/01/18 00:45:39;;;;;;;26.00;16.07;;;0.30;99.90;;;;;;5046312;28;20175;-80
2021/01/18 00:48:05;;;;;;;24.53;13.50;;;0.30;99.90;;;;;;5045622;28;20188;-81
2021/01/18 00:50:31;;;;;;;17.47;14.10;;;0.40;99.90;;;;;;5045741;28;20494;-79
2021/01/18 00:53:00;;;;;;;23.17;14.70;;;0.40;99.90;;;;;;5028489;28;20427;-81
2021/01/18 00:55:26;;;;;;;28.70;16.17;;;0.30;99.90;;;;;;5046504;28;20366;-81
2021/01/18 00:57:52;;;;;;;22.17;13.90;;;0.30;99.90;;;;;;5047042;28;20367;-81
2021/01/18 01:00:21;;;;;;;24.53;15.33;;;0.30;99.90;;;;;;5047229;28;20430;-80
2021/01/18 01:02:50;;;;;;;25.13;15.93;;;0.20;99.90;;;;;;5028714;28;20366;-80
2021/01/18 01:05:18;;;;;;;25.60;13.53;;;0.30;99.90;;;;;;5046313;28;20495;-81
2021/01/18 01:07:46;;;;;;;25.10;14.17;;;0.50;99.90;;;;;;5028159;28;20506;-81
2021/01/18 01:10:16;;;;;;;32.70;18.07;;;0.50;99.90;;;;;;5040861;28;20462;-80
2021/01/18 01:12:42;;;;;;;25.60;16.40;;;0.50;99.90;;;;;;5028823;28;20721;-80
2021/01/18 01:15:09;;;;;;;29.43;18.30;;;0.70;99.90;;;;;;5046672;28;20418;-81
2021/01/18 01:17:50;;;;;;;26.17;17.03;;;0.60;99.90;;;;;;5046313;28;20181;-80
2021/01/18 01:20:18;;;;;;;24.07;14.60;;;0.40;99.90;;;;;;5029279;28;20388;-81
2021/01/18 01:22:43;;;;;;;27.77;16.90;;;0.40;99.90;;;;;;5047270;28;20978;-81
2021/01/18 01:25:11;;;;;;;25.60;13.60;;;0.40;99.90;;;;;;5046724;28;20450;-81
2021/01/18 01:27:38;;;;;;;20.63;11.67;;;0.40;99.90;;;;;;5029611;28;20169;-81
2021/01/18 01:30:06;;;;;;;37.23;17.83;;;0.20;99.90;;;;;;5047365;28;20497;-81
2021/01/18 01:32:32;;;;;;;28.80;13.13;;;0.30;99.90;;;;;;5047192;28;20515;-81
2021/01/18 01:34:58;;;;;;;23.20;16.30;;;0.30;99.90;;;;;;5046241;28;20426;-81
2021/01/18 01:37:24;;;;;;;39.80;20.00;;;0.30;99.90;;;;;;5047036;28;20808;-80
2021/01/18 01:39:50;;;;;;;35.73;19.30;;;0.30;99.90;;;;;;5046886;28;20388;-81
2021/01/18 01:42:23;;;;;;;33.83;18.57;;;0.30;99.90;;;;;;5047197;28;20168;-81
2021/01/18 01:44:50;;;;;;;35.50;20.93;;;0.30;99.90;;;;;;5047331;28;20485;-81
2021/01/18 01:47:26;;;;;;;25.67;15.87;;;0.30;99.90;;;;;;5029950;28;20379;-80
2021/01/18 01:49:53;;;;;;;28.63;14.60;;;0.40;99.90;;;;;;5030493;28;20734;-81
2021/01/18 01:52:22;;;;;;;26.87;16.13;;;0.30;99.90;;;;;;5048206;28;20422;-81
2021/01/18 01:54:54;;;;;;;33.33;18.57;;;0.30;99.90;;;;;;5047932;28;20366;-81
2021/01/18 01:57:20;;;;;;;60.20;17.07;;;0.20;99.90;;;;;;5047733;28;20398;-81
2021/01/18 01:59:46;;;;;;;22.57;15.77;;;0.30;99.90;;;;;;5047902;28;20454;-81
2021/01/18 02:02:14;;;;;;;18.90;14.97;;;0.30;99.90;;;;;;5047733;28;20422;-81
2021/01/18 02:04:41;;;;;;;49.03;17.43;;;0.20;99.90;;;;;;5051120;28;20441;-81
2021/01/18 02:07:24;;;;;;;29.07;18.70;;;0.20;99.90;;;;;;5032507;28;20384;-81
2021/01/18 02:09:50;;;;;;;19.50;13.40;;;0.20;99.90;;;;;;5048000;28;20388;-81
2021/01/18 02:12:16;;;;;;;34.53;15.87;;;0.30;99.90;;;;;;5048823;28;20400;-81
2021/01/18 02:15:12;;;;;;;26.93;16.63;;;0.30;99.90;;;;;;5054156;28;20400;-78
2021/01/18 02:17:53;;;;;;;23.63;17.43;;;0.30;99.90;;;;;;5056380;28;20408;-78
2021/01/18 02:20:52;;;;;;;33.90;21.50;;;0.40;99.90;;;;;;5054452;28;20405;-80
2021/01/18 02:23:43;;;;;;;31.20;19.77;;;0.50;99.90;;;;;;5053549;28;20429;-81
2021/01/18 02:26:20;;;;;;;32.40;19.53;;;0.30;99.90;;;;;;5056448;28;20428;-78
2021/01/18 02:29:03;;;;;;;31.40;17.93;;;0.40;99.90;;;;;;5056291;28;20427;-78
2021/01/18 02:31:59;;;;;;;31.50;17.67;;;0.40;99.90;;;;;;5056628;28;20372;-78
2021/01/18 02:34:46;;;;;;;30.70;17.67;;;0.40;99.90;;;;;;5043001;28;20495;-78
2021/01/18 02:37:36;;;;;;;29.03;16.53;;;0.40;99.90;;;;;;5056309;28;20376;-78
2021/01/18 02:40:07;;;;;;;33.90;17.07;;;0.40;99.90;;;;;;5048854;28;20471;-79
2021/01/18 02:42:48;;;;;;;35.50;18.53;;;0.40;99.90;;;;;;5046847;28;20363;-81
2021/01/18 02:45:17;;;;;;;34.37;18.30;;;0.50;99.90;;;;;;5044736;28;20443;-81
2021/01/18 02:47:46;;;;;;;26.50;16.27;;;0.60;99.90;;;;;;5047241;28;20374;-81
2021/01/18 02:50:11;;;;;;;32.93;18.03;;;0.70;99.90;;;;;;5030574;28;20785;-80
2021/01/18 02:52:39;;;;;;;32.17;17.80;;;0.60;99.90;;;;;;5047871;28;20409;-80
2021/01/18 02:55:06;;;;;;;35.37;19.83;;;0.60;99.90;;;;;;5048343;28;20373;-79
2021/01/18 02:57:35;;;;;;;30.77;17.37;;;0.60;99.90;;;;;;5030615;28;20395;-80
2021/01/18 03:00:04;;;;;;;35.87;17.87;;;0.70;99.90;;;;;;5048439;28;20391;-79
2021/01/18 03:02:54;;;;;;;30.07;15.10;;;0.70;99.90;;;;;;5047809;28;20399;-81
2021/01/18 03:05:44;;;;;;;37.37;16.37;;;0.70;99.90;;;;;;5048469;28;20396;-81
2021/01/18 03:08:21;;;;;;;35.00;17.30;;;0.70;99.90;;;;;;5048568;28;20380;-81
2021/01/18 03:11:13;;;;;;;29.23;16.20;;;0.70;99.90;;;;;;5049239;28;20405;-81
2021/01/18 03:13:48;;;;;;;31.03;15.10;;;0.70;99.90;;;;;;5048670;28;20367;-79
2021/01/18 03:16:21;;;;;;;36.87;15.80;;;0.80;99.90;;;;;;5048844;28;20399;-81
2021/01/18 03:18:50;;;;;;;22.60;15.90;;;0.70;99.90;;;;;;5048951;28;20391;-80
2021/01/18 03:21:17;;;;;;;39.67;18.37;;;0.50;99.90;;;;;;5050444;28;20392;-80
2021/01/18 03:23:44;;;;;;;33.07;15.27;;;0.60;99.90;;;;;;5049770;28;20461;-81
2021/01/18 03:26:10;;;;;;;25.93;16.20;;;0.70;99.90;;;;;;5050258;28;20467;-80
2021/01/18 03:28:37;;;;;;;36.53;16.73;;;0.70;99.90;;;;;;5049871;28;20388;-81
2021/01/18 03:31:02;;;;;;;43.53;20.60;;;0.70;99.90;;;;;;5051240;28;20388;-81
2021/01/18 03:33:28;;;;;;;32.67;20.07;;;0.70;99.90;;;;;;5052164;28;20461;-81
2021/01/18 03:35:55;;;;;;;34.77;15.63;;;0.70;99.90;;;;;;5052629;28;20272;-80
2021/01/18 03:38:22;;;;;;;24.10;13.50;;;0.80;99.90;;;;;;5049810;28;20398;-80
2021/01/18 03:40:49;;;;;;;32.73;19.57;;;0.60;99.90;;;;;;5049931;28;20459;-80
2021/01/18 03:43:15;;;;;;;28.40;17.27;;;0.80;99.90;;;;;;5049773;28;20459;-81
2021/01/18 03:45:42;;;;;;;27.93;16.23;;;0.70;99.90;;;;;;5050461;28;20399;-81
2021/01/18 03:48:10;;;;;;;30.93;15.63;;;0.80;99.90;;;;;;5050524;28;20192;-81
2021/01/18 03:50:37;;;;;;;24.73;15.73;;;0.80;99.90;;;;;;5050642;28;20370;-81
2021/01/18 03:53:06;;;;;;;30.57;16.77;;;0.90;99.90;;;;;;5046940;28;20471;-80
2021/01/18 03:55:32;;;;;;;33.63;17.10;;;1.00;99.90;;;;;;5046763;28;20392;-80
2021/01/18 03:57:58;;;;;;;27.60;17.03;;;1.00;99.90;;;;;;5027388;28;20526;-81
2021/01/18 04:00:27;;;;;;;34.70;19.97;;;0.90;99.90;;;;;;5047033;28;20384;-80
2021/01/18 04:02:53;;;;;;;37.03;16.73;;;1.00;99.90;;;;;;5046298;28;20180;-80
2021/01/18 04:05:20;;;;;;;33.80;17.07;;;1.20;99.90;;;;;;5013276;28;20763;-80
2021/01/18 04:07:49;;;;;;;30.80;17.20;;;1.30;99.90;;;;;;5047520;28;20491;-80
2021/01/18 04:10:17;;;;;;;31.13;19.27;;;1.30;99.90;;;;;;5047170;28;20399;-81
2021/01/18 04:12:44;;;;;;;33.77;17.13;;;1.30;99.90;;;;;;5047480;28;20456;-81
2021/01/18 04:15:12;;;;;;;25.97;16.63;;;1.30;99.90;;;;;;5051286;28;20399;-82
2021/01/18 04:17:42;;;;;;;29.73;16.53;;;1.30;99.90;;;;;;5048473;28;20451;-82
2021/01/18 04:20:11;;;;;;;27.40;16.27;;;1.30;99.90;;;;;;5048921;28;20370;-82
2021/01/18 04:22:43;;;;;;;26.40;16.83;;;1.40;99.90;;;;;;5049623;28;20856;-81
2021/01/18 04:25:11;;;;;;;25.30;17.13;;;1.20;99.90;;;;;;5049038;28;20435;-81
2021/01/18 04:27:46;;;;;;;32.63;17.20;;;1.30;99.90;;;;;;5048973;28;20391;-82
2021/01/18 04:30:13;;;;;;;32.70;15.10;;;1.30;99.90;;;;;;5048195;28;20404;-82
2021/01/18 04:32:39;;;;;;;38.77;16.77;;;1.30;99.90;;;;;;5049482;28;20904;-81
2021/01/18 04:35:06;;;;;;;29.87;17.70;;;1.30;99.90;;;;;;5048460;28;20515;-81
2021/01/18 04:37:33;;;;;;;35.57;18.30;;;1.30;99.90;;;;;;5049260;28;20173;-81
2021/01/18 04:40:00;;;;;;;29.10;17.77;;;1.30;99.90;;;;;;5048595;28;20400;-81
2021/01/18 04:42:27;;;;;;;38.20;17.87;;;1.30;99.90;;;;;;5049004;28;20459;-81
2021/01/18 04:44:55;;;;;;;30.93;16.27;;;1.40;99.90;;;;;;5032737;28;20443;-81
2021/01/18 04:47:25;;;;;;;32.73;20.70;;;1.50;99.90;;;;;;5038153;28;20477;-81
2021/01/18 04:49:55;;;;;;;30.13;17.30;;;1.30;99.90;;;;;;5031767;28;20392;-79
2021/01/18 04:52:33;;;;;;;32.37;16.93;;;1.30;99.90;;;;;;5033286;28;20396;-80
2021/01/18 04:55:03;;;;;;;27.17;15.03;;;1.40;99.90;;;;;;4985782;28;20440;-81
2021/01/18 04:57:37;;;;;;;24.00;13.67;;;1.40;99.90;;;;;;5027484;28;20396;-81
2021/01/18 05:00:04;;;;;;;26.93;14.47;;;1.40;99.90;;;;;;5026676;28;20419;-79
2021/01/18 05:02:39;;;;;;;28.90;16.80;;;1.40;99.90;;;;;;5026949;28;20396;-81
2021/01/18 05:05:19;;;;;;;29.23;15.10;;;1.40;99.90;;;;;;5028704;28;20439;-81
2021/01/18 05:08:05;;;;;;;21.17;13.97;;;1.50;99.90;;;;;;5029502;28;20427;-81
2021/01/18 05:10:33;;;;;;;37.67;16.40;;;1.50;99.90;;;;;;5027616;28;20426;-81
2021/01/18 05:13:03;;;;;;;19.20;12.10;;;1.50;99.90;;;;;;5026955;28;20397;-80
2021/01/18 05:15:28;;;;;;;27.27;14.60;;;1.50;99.90;;;;;;5027125;28;20375;-81
2021/01/18 05:17:59;;;;;;;17.70;10.60;;;1.60;99.90;;;;;;5026819;28;20724;-80
2021/01/18 05:20:25;;;;;;;24.13;15.77;;;1.50;99.90;;;;;;5026559;28;20169;-81
2021/01/18 05:22:52;;;;;;;36.40;16.33;;;1.50;99.90;;;;;;5009076;28;20454;-81
2021/01/18 05:25:19;;;;;;;27.23;17.50;;;1.60;99.90;;;;;;5009845;28;20544;-80
2021/01/18 05:28:06;;;;;;;29.27;15.67;;;1.70;99.90;;;;;;5026062;28;20487;-80
2021/01/18 05:30:35;;;;;;;26.60;14.83;;;1.70;99.90;;;;;;5007512;28;20400;-79
2021/01/18 05:33:09;;;;;;;20.30;12.80;;;1.70;99.90;;;;;;5025734;28;20414;-81
2021/01/18 05:35:37;;;;;;;20.73;14.23;;;1.70;99.90;;;;;;5044772;28;20395;-80
2021/01/18 05:38:10;;;;;;;21.47;13.37;;;1.70;99.90;;;;;;5045445;28;20430;-81
2021/01/18 05:40:46;;;;;;;22.97;13.27;;;1.90;99.90;;;;;;5045637;28;20392;-80
2021/01/18 05:43:14;;;;;;;27.73;15.57;;;1.80;99.90;;;;;;5046134;28;20900;-81
2021/01/18 05:45:45;;;;;;;30.87;16.00;;;1.80;99.90;;;;;;5027722;28;20449;-81
2021/01/18 05:48:12;;;;;;;34.27;17.43;;;1.70;99.90;;;;;;5046149;28;20434;-81
2021/01/18 05:50:39;;;;;;;27.40;13.43;;;1.60;99.90;;;;;;5045358;28;20397;-80
2021/01/18 05:53:27;;;;;;;23.07;14.47;;;1.60;99.90;;;;;;5045633;28;20374;-81
2021/01/18 05:55:54;;;;;;;19.60;13.00;;;1.60;99.90;;;;;;5045933;28;20389;-79
2021/01/18 05:58:35;;;;;;;29.73;14.37;;;1.50;99.90;;;;;;5047098;28;20399;-81
2021/01/18 06:01:01;;;;;;;32.73;16.87;;;1.60;99.90;;;;;;5048793;28;20388;-80
2021/01/18 06:03:28;;;;;;;28.73;16.03;;;1.60;99.90;;;;;;5045989;28;20454;-81
2021/01/18 06:05:55;;;;;;;25.43;13.50;;;1.50;99.90;;;;;;5060206;28;20187;-80
2021/01/18 06:08:21;;;;;;;30.13;16.27;;;1.50;99.90;;;;;;5065214;28;20493;-80
2021/01/18 06:10:49;;;;;;;28.00;16.53;;;1.60;99.90;;;;;;5046305;28;20366;-80
2021/01/18 06:13:29;;;;;;;41.50;15.03;;;1.70;99.90;;;;;;5044847;28;20394;-80
2021/01/18 06:16:12;;;;;;;22.97;15.63;;;1.80;99.90;;;;;;5062225;28;20399;-80
2021/01/18 06:18:40;;;;;;;23.73;14.20;;;2.00;99.90;;;;;;5063284;28;20381;-82
2021/01/18 06:21:09;;;;;;;24.90;14.33;;;2.10;99.90;;;;;;5062092;28;20396;-80
2021/01/18 06:23:36;;;;;;;22.70;14.67;;;2.10;99.90;;;;;;5064521;28;20420;-79
2021/01/18 06:26:02;;;;;;;28.10;16.90;;;2.00;99.90;;;;;;5067408;28;21037;-81
2021/01/18 06:28:32;;;;;;;22.83;14.00;;;2.00;99.90;;;;;;5069353;28;20401;-79
2021/01/18 06:31:00;;;;;;;30.63;15.03;;;1.90;99.90;;;;;;5069449;28;20455;-80
2021/01/18 06:33:41;;;;;;;20.73;12.30;;;2.00;99.90;;;;;;5068832;28;20461;-81
2021/01/18 06:36:20;;;;;;;27.17;13.07;;;2.10;99.90;;;;;;5052514;28;20398;-80
2021/01/18 06:39:00;;;;;;;24.93;11.80;;;2.10;99.90;;;;;;5030005;28;20389;-80
2021/01/18 06:41:32;;;;;;;19.80;13.13;;;2.10;99.90;;;;;;5047817;28;20381;-80
2021/01/18 06:43:59;;;;;;;21.13;9.00;;;2.00;99.90;;;;;;5049095;28;20462;-81
2021/01/18 06:46:32;;;;;;;18.30;11.70;;;1.90;99.90;;;;;;5056047;28;20394;-81
2021/01/18 06:48:58;;;;;;;29.10;11.93;;;2.10;99.90;;;;;;5065377;28;20403;-81
2021/01/18 06:51:41;;;;;;;17.80;11.20;;;2.10;99.90;;;;;;5067257;28;20399;-80
2021/01/18 06:54:19;;;;;;;15.93;8.77;;;2.20;99.90;;;;;;5034002;28;20456;-79
2021/01/18 06:57:01;;;;;;;22.50;11.90;;;2.20;99.90;;;;;;5067288;28;20380;-81
2021/01/18 06:59:45;;;;;;;15.87;10.83;;;2.30;99.90;;;;;;5067171;28;20500;-80
2021/01/18 07:02:23;;;;;;;22.00;12.87;;;2.20;99.90;;;;;;5068439;28;20465;-80
2021/01/18 07:04:50;;;;;;;15.70;10.47;;;2.20;99.90;;;;;;5049700;28;20449;-80
2021/01/18 07:07:26;;;;;;;20.60;11.70;;;2.20;99.90;;;;;;5068322;28;20402;-81
2021/01/18 07:09:58;;;;;;;12.30;9.00;;;2.30;99.90;;;;;;5068302;28;20365;-81
2021/01/18 07:12:26;;;;;;;10.80;8.30;;;2.20;99.90;;;;;;5049766;28;20402;-80
2021/01/18 07:15:04;;;;;;;17.47;9.77;;;2.30;99.90;;;;;;5049651;28;20398;-80
2021/01/18 07:17:52;;;;;;;11.37;8.10;;;2.40;99.90;;;;;;5066648;28;20416;-80
2021/01/18 07:20:23;;;;;;;8.80;6.17;;;2.30;99.90;;;;;;5050917;28;20401;-81
2021/01/18 07:23:19;;;;;;;18.47;10.30;;;2.30;99.90;;;;;;5058926;28;20455;-80
2021/01/18 07:25:47;;;;;;;25.97;10.10;;;2.30;99.90;;;;;;5018681;28;20418;-80
2021/01/18 07:28:21;;;;;;;13.87;8.87;;;2.30;99.90;;;;;;5056607;28;20390;-80
2021/01/18 07:30:49;;;;;;;15.30;10.27;;;2.30;99.90;;;;;;5060926;28;20777;-80
2021/01/18 07:33:16;;;;;;;13.70;6.73;;;2.30;99.90;;;;;;5021792;28;601522;-81
2021/01/18 07:35:46;;;;;;;10.57;7.07;;;2.50;99.90;;;;;;5060548;28;20187;-82
2021/01/18 07:38:20;;;;;;;7.73;6.63;;;2.60;99.90;;;;;;5040970;28;20458;-82
2021/01/18 07:41:12;;;;;;;12.03;5.70;;;2.80;99.90;;;;;;5053052;28;20381;-81
2021/01/18 07:43:43;;;;;;;12.50;7.20;;;3.00;99.90;;;;;;5059796;28;20458;-82
2021/01/18 07:46:37;;;;;;;11.77;6.73;;;3.10;99.90;;;;;;5067914;28;20406;-81
2021/01/18 07:49:32;;;;;;;9.33;6.73;;;3.10;99.90;;;;;;5059378;28;20902;-81
2021/01/18 07:52:12;;;;;;;10.20;5.43;;;3.10;99.90;;;;;;5061255;28;20450;-82
2021/01/18 07:54:38;;;;;;;14.67;7.37;;;3.10;99.90;;;;;;5065383;28;20485;-82
2021/01/18 07:57:22;;;;;;;14.67;9.20;;;3.20;99.90;;;;;;5061805;28;20488;-81
2021/01/18 07:59:48;;;;;;;10.80;7.10;;;3.00;99.90;;;;;;5026470;28;20194;-82
2021/01/18 08:02:23;;;;;;;12.83;8.47;;;2.90;99.90;;;;;;5065893;28;20405;-82
2021/01/18 08:04:49;;;;;;;12.63;7.53;;;2.90;99.90;;;;;;5051728;28;20226;-82
2021/01/18 08:07:15;;;;;;;9.20;5.97;;;2.90;99.90;;;;;;5071595;28;20437;-80
2021/01/18 08:09:41;;;;;;;10.93;7.73;;;2.70;99.90;;;;;;5073165;28;20228;-82
2021/01/18 08:12:29;;;;;;;13.70;8.00;;;2.90;99.90;;;;;;5066683;28;20200;-81
2021/01/18 08:14:55;;;;;;;8.60;6.20;;;3.10;99.90;;;;;;5045580;28;20399;-81
2021/01/18 08:17:21;;;;;;;11.37;6.27;;;3.20;99.90;;;;;;5061859;28;20389;-81
2021/01/18 08:20:09;;;;;;;34.67;12.83;;;3.20;99.90;;;;;;5068098;28;20411;-80
2021/01/18 08:22:35;;;;;;;17.40;6.30;;;3.30;99.90;;;;;;5054487;28;20503;-80
2021/01/18 08:25:02;;;;;;;8.53;6.50;;;3.40;99.90;;;;;;5050288;28;20563;-81
2021/01/18 08:27:41;;;;;;;9.83;7.17;;;3.40;99.90;;;;;;5057644;28;20420;-82
2021/01/18 08:30:26;;;;;;;9.50;5.53;;;3.50;99.90;;;;;;5052576;28;20513;-80
2021/01/18 08:32:54;;;;;;;15.27;5.97;;;3.50;99.90;;;;;;5049106;28;20573;-80
2021/01/18 08:35:30;;;;;;;9.07;4.33;;;3.50;99.90;;;;;;5051627;28;20409;-79
2021/01/18 08:38:07;;;;;;;9.17;5.90;;;3.60;99.90;;;;;;5057235;28;20998;-80
2021/01/18 08:40:39;;;;;;;8.83;6.57;;;3.50;99.90;;;;;;5054355;28;20502;-80
2021/01/18 08:43:06;;;;;;;10.10;6.60;;;3.60;99.90;;;;;;5036909;28;20400;-80
2021/01/18 08:45:50;;;;;;;9.37;5.73;;;3.50;99.90;;;;;;5054987;28;20425;-80
2021/01/18 08:48:21;;;;;;;8.27;6.30;;;3.60;99.90;;;;;;5057102;28;20388;-80
2021/01/18 08:50:53;;;;;;;6.27;5.67;;;3.50;99.90;;;;;;5055494;28;20381;-80
2021/01/18 08:53:33;;;;;;;7.30;5.07;;;3.50;99.90;;;;;;5058534;28;20429;-81
2021/01/18 08:56:07;;;;;;;8.43;5.30;;;3.60;99.90;;;;;;5056057;28;20423;-80
2021/01/18 08:58:43;;;;;;;13.33;6.97;;;3.60;99.90;;;;;;5063084;28;20415;-81
2021/01/18 09:01:22;;;;;;;9.30;7.40;;;3.60;99.90;;;;;;5042938;28;20443;-80
2021/01/18 09:04:00;;;;;;;8.77;6.30;;;3.50;99.90;;;;;;5054824;28;20453;-80
2021/01/18 09:06:26;;;;;;;8.50;6.37;;;3.60;99.90;;;;;;5055641;28;20510;-81
2021/01/18 09:09:09;;;;;;;9.30;6.13;;;3.70;99.90;;;;;;5061093;28;20422;-80
2021/01/18 09:11:58;;;;;;;9.57;6.37;;;3.70;99.90;;;;;;5062285;28;20428;-80
2021/01/18 09:14:24;;;;;;;6.57;5.27;;;3.70;99.90;;;;;;5001356;28;20407;-79
2021/01/18 09:16:49;;;;;;;8.73;5.47;;;3.80;99.90;;;;;;5009072;28;20449;-79
2021/01/18 09:19:15;;;;;;;15.53;6.53;;;3.90;99.90;;;;;;5015532;28;20395;-80
2021/01/18 09:21:44;;;;;;;7.50;5.83;;;3.90;99.90;;;;;;4995234;28;20201;-79
2021/01/18 09:24:13;;;;;;;15.70;6.60;;;4.00;99.90;;;;;;4987900;28;20214;-78
2021/01/18 09:26:41;;;;;;;5.50;5.00;;;4.00;99.90;;;;;;4988030;28;20429;-80
2021/01/18 09:29:06;;;;;;;7.60;5.80;;;3.90;99.90;;;;;;5018178;28;20406;-79
2021/01/18 09:31:33;;;;;;;13.27;6.33;;;3.90;99.90;;;;;;5008982;28;20452;-78
2021/01/18 09:34:10;;;;;;;9.70;6.93;;;4.00;99.90;;;;;;4988513;28;20265;-80
2021/01/18 09:36:39;;;;;;;8.53;7.33;;;4.10;99.90;;;;;;4982857;28;20437;-81
2021/01/18 09:39:06;;;;;;;7.00;4.87;;;4.00;99.90;;;;;;5009703;28;20442;-81
2021/01/18 09:41:32;;;;;;;7.27;6.27;;;4.00;99.90;;;;;;5003095;28;20503;-80
2021/01/18 09:44:04;;;;;;;10.20;6.50;;;4.00;99.90;;;;;;5001775;28;20551;-81
2021/01/18 09:46:31;;;;;;;6.57;5.50;;;4.00;99.90;;;;;;5046659;28;20497;-81
2021/01/18 09:48:57;;;;;;;8.80;5.80;;;3.90;99.90;;;;;;5037953;28;20390;-81
2021/01/18 09:51:23;;;;;;;9.33;4.90;;;3.90;99.90;;;;;;5039953;28;20472;-81
2021/01/18 09:53:57;;;;;;;6.27;5.67;;;4.00;99.90;;;;;;5033871;28;20172;-81
2021/01/18 09:56:25;;;;;;;6.57;5.90;;;4.10;99.90;;;;;;5040641;28;20164;-80
2021/01/18 09:58:55;;;;;;;9.20;5.90;;;4.10;99.90;;;;;;5058487;28;20425;-80
2021/01/18 10:01:26;;;;;;;12.10;7.70;;;4.10;99.90;;;;;;5029979;28;20448;-81
2021/01/18 10:03:55;;;;;;;8.93;6.47;;;4.20;99.90;;;;;;5054909;28;20577;-80
2021/01/18 10:06:27;;;;;;;10.40;5.80;;;4.20;99.90;;;;;;5045302;28;20175;-81
2021/01/18 10:09:01;;;;;;;7.23;5.00;;;4.60;99.90;;;;;;5040541;28;20377;-80
2021/01/18 10:11:41;;;;;;;13.73;6.90;;;4.60;99.90;;;;;;5060006;28;20415;-81
2021/01/18 10:14:18;;;;;;;8.30;5.33;;;4.90;99.90;;;;;;5041308;28;20492;-81
2021/01/18 10:17:04;;;;;;;6.10;5.33;;;4.60;99.90;;;;;;5061394;28;20850;-80
2021/01/18 10:19:32;;;;;;;21.90;5.30;;;4.30;99.90;;;;;;5062507;28;20486;-81
2021/01/18 10:21:59;;;;;;;7.90;6.00;;;4.60;99.90;;;;;;5047023;28;20405;-81
2021/01/18 10:24:33;;;;;;;6.70;6.03;;;4.60;99.90;;;;;;5053910;28;20472;-81
2021/01/18 10:27:10;;;;;;;9.13;5.77;;;4.50;99.90;;;;;;5063780;28;20396;-80
2021/01/18 10:29:38;;;;;;;5.77;4.83;;;4.60;99.90;;;;;;5057097;28;20414;-81
2021/01/18 10:32:05;;;;;;;4.30;3.90;;;4.60;99.90;;;;;;5061652;28;20386;-81
2021/01/18 10:34:36;;;;;;;9.47;4.70;;;4.50;99.90;;;;;;5059276;28;20436;-81
2021/01/18 10:37:15;;;;;;;4.33;3.80;;;4.50;99.90;;;;;;5061420;28;20453;-81
2021/01/18 10:39:43;;;;;;;6.77;4.17;;;4.20;99.90;;;;;;5061294;28;20404;-80
2021/01/18 10:42:11;;;;;;;4.90;4.40;;;4.10;99.90;;;;;;5062418;28;20418;-80
2021/01/18 10:45:00;;;;;;;6.67;4.70;;;4.00;99.90;;;;;;5032315;28;20442;-80
2021/01/18 10:47:27;;;;;;;6.87;5.50;;;4.20;99.90;;;;;;5002782;28;20402;-80
2021/01/18 10:49:57;;;;;;;6.00;5.40;;;3.90;99.90;;;;;;5039305;28;20405;-81
2021/01/18 10:52:39;;;;;;;6.53;5.27;;;4.00;99.90;;;;;;5040658;28;20472;-81
2021/01/18 10:55:06;;;;;;;6.60;6.00;;;4.30;99.90;;;;;;5040121;28;20408;-81
2021/01/18 10:57:38;;;;;;;6.40;4.90;;;4.50;99.90;;;;;;5026535;28;20427;-81
2021/01/18 11:00:21;;;;;;;6.17;5.30;;;4.60;99.90;;;;;;5027137;28;20435;-79
2021/01/18 11:02:58;;;;;;;5.93;4.87;;;4.70;99.90;;;;;;5046656;28;20374;-80
2021/01/18 11:05:37;;;;;;;8.03;5.30;;;4.80;99.90;;;;;;5014827;28;20474;-79
2021/01/18 11:08:06;;;;;;;4.03;3.63;;;4.80;99.90;;;;;;5047902;28;20401;-80
2021/01/18 11:10:45;;;;;;;5.30;4.80;;;4.80;99.90;;;;;;5052982;28;20410;-80
2021/01/18 11:13:13;;;;;;;4.43;3.87;;;4.80;99.90;;;;;;5043128;28;20406;-82
2021/01/18 11:15:42;;;;;;;7.80;5.23;;;4.90;99.90;;;;;;5051461;28;20417;-80
2021/01/18 11:18:11;;;;;;;12.43;5.23;;;4.80;99.90;;;;;;5067385;28;20397;-81
2021/01/18 11:20:39;;;;;;;5.80;5.07;;;4.50;99.90;;;;;;5051634;28;20385;-81
2021/01/18 11:23:11;;;;;;;5.13;4.63;;;4.60;99.90;;;;;;5067152;28;20423;-80
2021/01/18 11:25:38;;;;;;;7.93;5.33;;;4.70;99.90;;;;;;5065055;28;20570;-80
2021/01/18 11:28:11;;;;;;;5.97;5.37;;;4.60;99.90;;;;;;5056716;28;20417;-79
2021/01/18 11:30:38;;;;;;;5.90;3.80;;;4.60;99.90;;;;;;5030412;28;20700;-84
2021/01/18 11:33:10;;;;;;;11.60;4.10;;;4.60;99.90;;;;;;5052647;28;20439;-79
2021/01/18 11:35:44;;;;;;;8.93;4.33;;;4.50;99.90;;;;;;5024806;28;20410;-78
2021/01/18 11:38:11;;;;;;;8.27;5.10;;;4.40;99.90;;;;;;5030042;28;20964;-79
2021/01/18 11:40:40;;;;;;;4.67;4.10;;;4.40;99.90;;;;;;5035177;28;20405;-78
2021/01/18 11:43:05;;;;;;;5.93;5.33;;;4.30;99.90;;;;;;5016737;28;20409;-78
2021/01/18 11:45:32;;;;;;;5.00;4.50;;;4.10;99.90;;;;;;5041133;28;20517;-81
2021/01/18 11:47:58;;;;;;;11.43;5.33;;;4.20;99.90;;;;;;5023501;28;20226;-80
2021/01/18 11:50:24;;;;;;;7.60;5.30;;;4.10;99.90;;;;;;5038611;28;20432;-80
2021/01/18 11:52:54;;;;;;;4.80;4.40;;;4.30;99.90;;;;;;5035441;28;20192;-80
2021/01/18 11:55:19;;;;;;;7.97;4.63;;;4.40;99.90;;;;;;5012284;28;20427;-81
2021/01/18 11:57:47;;;;;;;5.97;4.33;;;4.40;99.90;;;;;;5039235;28;20918;-81
2021/01/18 12:00:29;;;;;;;7.33;4.60;;;4.50;99.90;;;;;;5031192;28;20197;-80
2021/01/18 12:03:01;;;;;;;7.23;4.00;;;4.40;99.90;;;;;;5035801;28;20808;-79
2021/01/18 12:05:28;;;;;;;12.63;4.70;;;4.50;99.90;;;;;;5012445;28;20501;-80
2021/01/18 12:07:55;;;;;;;5.90;3.93;;;4.50;99.90;;;;;;5019904;28;20393;-79
2021/01/18 12:10:25;;;;;;;9.00;5.60;;;4.40;99.90;;;;;;5001741;28;20439;-81
2021/01/18 12:12:51;;;;;;;4.90;3.30;;;4.40;99.90;;;;;;5019670;28;20536;-79
2021/01/18 12:15:19;;;;;;;8.57;4.37;;;4.50;99.90;;;;;;5060590;28;20777;-81
2021/01/18 12:17:45;;;;;;;6.50;5.50;;;4.40;99.90;;;;;;5003535;28;20400;-80
2021/01/18 12:20:14;;;;;;;7.00;4.43;;;4.50;99.90;;;;;;5042748;28;20867;-79
2021/01/18 12:22:40;;;;;;;7.03;4.80;;;4.40;99.90;;;;;;5009872;28;20418;-80
2021/01/18 12:25:06;;;;;;;6.30;5.60;;;4.40;99.90;;;;;;5038109;28;20506;-79
2021/01/18 12:27:33;;;;;;;15.43;4.40;;;4.30;99.90;;;;;;4979874;28;20417;-79
2021/01/18 12:29:59;;;;;;;4.73;3.90;;;4.40;99.90;;;;;;5033022;28;20489;-80
2021/01/18 12:32:25;;;;;;;6.27;4.93;;;4.40;99.90;;;;;;5030990;28;20473;-79
2021/01/18 12:34:50;;;;;;;6.10;5.10;;;4.30;99.90;;;;;;5030889;28;20225;-80
2021/01/18 12:37:17;;;;;;;4.30;3.90;;;4.40;99.90;;;;;;5036160;28;20180;-80
2021/01/18 12:39:43;;;;;;;6.40;5.17;;;4.10;99.90;;;;;;5022681;28;20207;-80
2021/01/18 12:42:09;;;;;;;6.60;4.40;;;4.10;99.90;;;;;;5033929;28;20418;-80
2021/01/18 12:44:35;;;;;;;11.00;4.30;;;4.20;99.90;;;;;;5036375;28;20456;-80
2021/01/18 12:47:03;;;;;;;5.77;5.27;;;4.20;99.90;;;;;;5033989;28;20395;-80
2021/01/18 12:49:30;;;;;;;6.63;5.10;;;4.30;99.90;;;;;;5037610;28;20405;-80
2021/01/18 12:51:59;;;;;;;5.40;4.90;;;4.20;99.90;;;;;;5022088;28;20428;-79
2021/01/18 12:54:24;;;;;;;6.90;4.33;;;4.30;99.90;;;;;;5025200;28;20451;-79
2021/01/18 12:56:55;;;;;;;6.17;5.37;;;4.30;99.90;;;;;;5033390;28;20391;-79
2021/01/18 12:59:23;;;;;;;8.67;6.97;;;4.00;99.90;;;;;;5023901;28;20180;-80
2021/01/18 13:01:52;;;;;;;6.37;4.50;;;4.20;99.90;;;;;;5027608;28;20898;-79
2021/01/18 13:04:17;;;;;;;18.00;8.00;;;4.20;99.90;;;;;;5020980;28;20463;-79
2021/01/18 13:06:45;;;;;;;12.67;6.10;;;4.20;99.90;;;;;;4973798;28;20420;-80